Terminal Aerodrome Forecast
Issued by NWS Upton, NY

Home | Current Version | Previous Version | Text Only | Print | Product List | Glossary On
Versions: 1 2 3 4 5 6 7 8 9 10 11 12 13 14 15 16 17 18 19 20 21 22 23 24 25 26 27 28 29
179
FTUS41 KOKX 301432 AAA
TAFBDR
TAF AMD
KBDR 301432Z 3015/3112 09005KT P6SM FEW015 SCT150
     FM301600 16006KT P6SM SCT040 BKN200
     FM310000 16003KT P6SM SCT020 BKN050 BKN120 PROB30 3104/3110 6SM
      -SHRA
     FM311000 13005KT P6SM BKN020 BKN050 PROB30 3110/3112 6SM -SHRA=

USA.gov is the U.S. government's official web portal to all federal, state and local government web resources and services.